Карточка аэропорта UACC

Внимание!
Информация на этой странице в стадии наполнения.
Если вы не увидели какой-то информации, или заметили неточность - пожалуйста сообщите нам!
Спасибо!
Команда RU-STAFF
Название аэропортаАстана
Название аэропорта (англ.)Astana
Превышение1165 ft. (355.1 m.)
Координаты51°1.3319999999999', 71°28.014'
Высота перехода10000ft
Эшелон переходаFL120, QNH<733:FL130
Коды ответчика0601-0627, 7201-7217
Зона ОрВДАстана РПИ (UACN)
Данные METARUACC 160800Z 01002MPS 290V080 9999 FEW036CB BKN040 29/16 Q1013 NOSIG RMK QFE729/0972
Проноз погоды (TAF)UACC 160702Z 1607/1706 34005MPS 9999 SCT030CB BKN040 TX30/1610Z TN18/1701Z TEMPO 1607/1616 VRB15MPS 3100 -TSRA SQ BKN020CB BECMG 1616/1618 VRB01MPS SCT020 BKN100 TEMPO 1618/1701 3100 BR SCT011
NOTAMshow/hide NOTAM
AWOS   TABLE

Информация о ВПП

ВПП Длина ВПП (м.) Покрытие Курс ВПП Частота ILS
043500Асфальтобетон35109.5
223500Асфальтобетон215111.7

Диспетчерские позиции

Позывной Наименование органа УВД Частота
UACC_APPАстана Подход124.6
UACC_R_APPАстана Круг120.7
UACC_TWRАстана Вышка118.7
UACC_GNDАстана Руление119.6



Спутниковое изображение